sensor_id;sensor_type;location;lat;lon;timestamp;temperature;humidity
47757;SHT35;22147;52.388;13.390;2022-08-11T00:01:10;18.79;60.05
47757;SHT35;22147;52.388;13.390;2022-08-11T00:03:49;18.73;60.27
47757;SHT35;22147;52.388;13.390;2022-08-11T00:06:31;18.68;60.52
47757;SHT35;22147;52.388;13.390;2022-08-11T00:09:02;18.59;60.89
47757;SHT35;22147;52.388;13.390;2022-08-11T00:11:55;18.52;60.62
47757;SHT35;22147;52.388;13.390;2022-08-11T00:14:33;18.49;60.59
47757;SHT35;22147;52.388;13.390;2022-08-11T00:17:13;18.48;60.78
47757;SHT35;22147;52.388;13.390;2022-08-11T00:19:48;18.42;60.78
47757;SHT35;22147;52.388;13.390;2022-08-11T00:22:42;18.42;60.82
47757;SHT35;22147;52.388;13.390;2022-08-11T00:25:19;18.38;60.93
47757;SHT35;22147;52.388;13.390;2022-08-11T00:27:48;18.38;61.17
47757;SHT35;22147;52.388;13.390;2022-08-11T00:30:16;18.34;61.36
47757;SHT35;22147;52.388;13.390;2022-08-11T00:32:57;18.27;61.55
47757;SHT35;22147;52.388;13.390;2022-08-11T00:35:31;18.22;61.35
47757;SHT35;22147;52.388;13.390;2022-08-11T00:38:28;18.21;61.16
47757;SHT35;22147;52.388;13.390;2022-08-11T00:41:28;18.20;61.34
47757;SHT35;22147;52.388;13.390;2022-08-11T00:47:32;18.21;61.25
47757;SHT35;22147;52.388;13.390;2022-08-11T00:50:24;18.14;61.78
47757;SHT35;22147;52.388;13.390;2022-08-11T01:26:23;17.62;62.96
47757;SHT35;22147;52.388;13.390;2022-08-11T01:45:42;17.40;63.18
47757;SHT35;22147;52.388;13.390;2022-08-11T01:48:56;17.40;63.50
47757;SHT35;22147;52.388;13.390;2022-08-11T01:52:20;17.36;63.82
47757;SHT35;22147;52.388;13.390;2022-08-11T01:58:50;17.35;63.61
47757;SHT35;22147;52.388;13.390;2022-08-11T02:11:29;17.25;63.87
47757;SHT35;22147;52.388;13.390;2022-08-11T02:14:15;17.24;63.79
47757;SHT35;22147;52.388;13.390;2022-08-11T02:17:18;17.27;63.53
47757;SHT35;22147;52.388;13.390;2022-08-11T02:20:21;17.24;63.82
47757;SHT35;22147;52.388;13.390;2022-08-11T02:23:20;17.18;64.29
47757;SHT35;22147;52.388;13.390;2022-08-11T02:26:49;17.14;64.06
47757;SHT35;22147;52.388;13.390;2022-08-11T02:29:45;17.09;64.30
47757;SHT35;22147;52.388;13.390;2022-08-11T02:32:38;17.05;64.32
47757;SHT35;22147;52.388;13.390;2022-08-11T02:38:32;17.00;64.75
47757;SHT35;22147;52.388;13.390;2022-08-11T02:41:22;16.98;64.44
47757;SHT35;22147;52.388;13.390;2022-08-11T02:44:50;16.98;64.56
47757;SHT35;22147;52.388;13.390;2022-08-11T02:57:39;16.73;65.66
47757;SHT35;22147;52.388;13.390;2022-08-11T03:00:17;16.69;65.80
47757;SHT35;22147;52.388;13.390;2022-08-11T03:03:14;16.64;66.16
47757;SHT35;22147;52.388;13.390;2022-08-11T03:09:38;16.59;66.03
47757;SHT35;22147;52.388;13.390;2022-08-11T03:13:18;16.56;66.13
47757;SHT35;22147;52.388;13.390;2022-08-11T03:16:50;16.55;66.24
47757;SHT35;22147;52.388;13.390;2022-08-11T03:25:50;16.46;66.55
47757;SHT35;22147;52.388;13.390;2022-08-11T03:32:27;16.39;66.58
47757;SHT35;22147;52.388;13.390;2022-08-11T03:35:01;16.36;66.82
47757;SHT35;22147;52.388;13.390;2022-08-11T03:38:10;16.37;66.62
47757;SHT35;22147;52.388;13.390;2022-08-11T03:41:25;16.34;66.52
47757;SHT35;22147;52.388;13.390;2022-08-11T03:54:28;16.33;67.19
47757;SHT35;22147;52.388;13.390;2022-08-11T04:16:29;16.22;68.63
47757;SHT35;22147;52.388;13.390;2022-08-11T04:26:20;16.33;68.54
